createdAt,value
2023-02-27T07:22:32.610Z,100991.22
2023-02-27T07:23:36.289Z,100993.84
2023-02-27T07:24:40.163Z,100996.44
2023-02-27T07:25:42.934Z,100990.38
2023-02-27T07:26:45.731Z,100986.88
2023-02-27T07:27:50.890Z,100994.66
2023-02-27T07:28:55.029Z,100970.66
2023-02-27T07:29:58.079Z,100996.37
2023-02-27T07:31:01.102Z,100991.22
2023-02-27T07:32:04.156Z,100992.13
2023-02-27T07:33:07.373Z,100993.78
2023-02-27T07:34:12.106Z,100998.09
2023-02-27T07:35:14.926Z,100993.81
2023-02-27T07:36:18.008Z,101001.50
2023-02-27T07:37:20.997Z,100992.03
2023-02-27T07:38:24.553Z,101002.41
2023-02-27T07:39:27.689Z,100996.31
2023-02-27T07:40:30.572Z,101006.72
2023-02-27T07:41:33.574Z,100998.09
2023-02-27T07:42:36.534Z,100999.81
2023-02-27T07:43:39.251Z,101002.41
2023-02-27T07:44:42.345Z,100996.37
2023-02-27T07:45:45.448Z,101000.66
2023-02-27T07:46:48.305Z,100995.53
2023-02-27T07:47:51.120Z,100999.78
2023-02-27T07:48:54.579Z,100998.84
2023-02-27T07:49:57.994Z,101016.09
2023-02-27T07:51:01.550Z,101013.44
2023-02-27T07:52:04.518Z,101013.44
2023-02-27T07:53:08.158Z,101010.03
2023-02-27T07:54:11.202Z,101011.75
2023-02-27T07:55:14.933Z,101016.87
2023-02-27T07:56:18.423Z,101016.00
2023-02-27T07:57:21.370Z,101028.03
2023-02-27T07:58:27.761Z,101018.50
2023-02-27T07:59:30.575Z,101024.53
2023-02-27T08:00:34.502Z,101016.78
2023-02-27T08:01:37.533Z,101035.69
2023-02-27T08:02:40.955Z,101027.13
2023-02-27T08:03:43.864Z,101032.28
2023-02-27T08:04:46.735Z,101022.81
2023-02-27T08:05:49.517Z,101034.78
2023-02-27T08:06:52.558Z,101020.09
2023-02-27T08:07:55.491Z,101023.56
2023-02-27T08:08:58.358Z,101027.00
2023-02-27T08:10:01.141Z,101038.13
2023-02-27T08:11:04.186Z,101034.63
2023-02-27T08:12:07.431Z,101031.97
2023-02-27T08:13:10.316Z,101033.84
2023-02-27T08:14:12.991Z,101038.19
2023-02-27T08:15:17.151Z,101038.13
2023-02-27T08:16:22.669Z,101053.72
2023-02-27T08:17:26.041Z,101050.25
2023-02-27T08:18:28.830Z,101069.97
2023-02-27T08:19:31.966Z,101045.06
2023-02-27T08:20:35.184Z,101050.22
2023-02-27T08:21:38.369Z,101050.09
2023-02-27T08:22:42.467Z,101050.87
2023-02-27T08:23:45.719Z,101053.47
2023-02-27T08:24:48.435Z,101038.00
2023-02-27T08:25:51.487Z,101044.13
2023-02-27T08:26:54.497Z,101056.22
2023-02-27T08:27:57.602Z,101051.84
2023-02-27T08:29:00.496Z,101052.75
2023-02-27T08:30:04.720Z,101059.50
2023-02-27T08:31:08.252Z,101055.97
2023-02-27T08:32:11.660Z,101066.22
2023-02-27T08:33:15.343Z,101067.09
2023-02-27T08:34:18.207Z,101071.44
2023-02-27T08:35:21.841Z,101066.06
2023-02-27T08:36:25.479Z,101078.78
2023-02-27T08:37:29.599Z,101065.66
2023-02-27T08:38:33.436Z,101076.94
2023-02-27T08:39:36.243Z,101079.56
2023-02-27T08:40:39.113Z,101072.66
2023-02-27T08:41:41.959Z,101076.16
2023-02-27T08:42:45.063Z,101072.62
2023-02-27T08:43:48.867Z,101073.47
2023-02-27T08:44:51.855Z,101078.75
2023-02-27T08:45:54.883Z,101083.09
2023-02-27T08:46:57.808Z,101074.66
2023-02-27T08:48:00.594Z,101077.19
2023-02-27T08:49:03.771Z,101077.97
2023-02-27T08:50:06.841Z,101079.56
2023-02-27T08:51:10.255Z,101083.00
2023-02-27T08:52:13.174Z,101076.28
2023-02-27T08:53:15.968Z,101077.09
2023-02-27T08:54:19.716Z,101082.09
2023-02-27T08:55:22.526Z,101090.84
2023-02-27T08:56:26.843Z,101087.19
2023-02-27T08:57:29.939Z,101084.53
2023-02-27T08:58:34.746Z,101097.47
2023-02-27T08:59:38.086Z,101092.09
2023-02-27T09:00:41.206Z,101090.22
2023-02-27T09:01:45.030Z,101097.22
2023-02-27T09:02:47.823Z,101099.81
2023-02-27T09:03:51.050Z,101103.12
2023-02-27T09:04:54.196Z,101107.56
2023-02-27T09:05:57.073Z,101109.84
2023-02-27T09:06:59.938Z,101109.09
2023-02-27T09:08:03.795Z,101112.34
2023-02-27T09:09:07.079Z,101104.63
2023-02-27T09:10:10.856Z,101104.41
2023-02-27T09:11:14.369Z,101107.87
2023-02-27T09:12:17.103Z,101112.13
2023-02-27T09:13:22.110Z,101110.47
2023-02-27T09:14:24.962Z,101109.09
2023-02-27T09:15:28.920Z,101108.03
2023-02-27T09:16:32.061Z,101099.69
2023-02-27T09:17:34.936Z,101115.16
2023-02-27T09:18:37.836Z,101112.50
2023-02-27T09:19:40.716Z,101118.59
2023-02-27T09:20:43.852Z,101117.88
2023-02-27T09:21:46.897Z,101110.91
2023-02-27T09:22:49.952Z,101125.44
2023-02-27T09:23:53.129Z,101119.69
2023-02-27T09:24:56.201Z,101125.09
2023-02-27T09:25:59.354Z,101116.38
2023-02-27T09:27:02.146Z,101119.50
2023-02-27T09:28:05.102Z,101122.09
2023-02-27T09:29:07.995Z,101128.13
2023-02-27T09:30:11.499Z,101123.78
2023-02-27T09:31:17.717Z,101117.88
2023-02-27T09:32:20.707Z,101132.28
2023-02-27T09:33:24.846Z,101128.66
2023-02-27T09:34:27.692Z,101130.41
2023-02-27T09:35:30.522Z,101124.56
2023-02-27T09:36:33.663Z,101130.72
2023-02-27T09:37:37.125Z,101130.75
2023-02-27T09:38:41.376Z,101126.28
2023-02-27T09:39:46.249Z,101129.53
2023-02-27T09:40:53.079Z,101132.16
2023-02-27T09:41:56.086Z,101138.19
2023-02-27T09:43:10.333Z,101130.41
2023-02-27T09:44:36.334Z,101133.75
2023-02-27T09:45:50.332Z,101135.47
2023-02-27T09:46:54.333Z,101140.38
2023-02-27T09:48:08.601Z,101142.37
2023-02-27T09:49:15.127Z,101144.97
2023-02-27T09:50:40.752Z,101140.22
2023-02-27T09:51:43.582Z,101145.69
2023-02-27T09:52:46.590Z,101152.25
2023-02-27T09:53:56.992Z,101128.16
2023-02-27T09:55:00.634Z,101161.59
2023-02-27T09:56:33.298Z,101162.63
2023-02-27T09:58:06.882Z,101159.09
2023-02-27T09:59:12.804Z,101162.81
2023-02-27T10:00:27.712Z,101164.47
2023-02-27T10:01:41.004Z,101157.69
2023-02-27T10:03:09.985Z,101156.97
2023-02-27T10:04:31.093Z,101166.97
2023-02-27T10:06:01.966Z,101177.94
2023-02-27T10:07:25.142Z,101177.16
2023-02-27T10:08:39.346Z,101180.88
2023-02-27T10:10:04.826Z,101182.03
2023-02-27T10:11:11.060Z,101178.56
2023-02-27T10:12:17.077Z,101171.44
2023-02-27T10:13:44.485Z,101179.19
2023-02-27T10:14:59.901Z,101179.94
2023-02-27T10:16:04.139Z,101180.16
2023-02-27T10:17:15.734Z,101192.41
2023-02-27T10:18:29.019Z,101183.06
2023-02-27T10:19:37.755Z,101188.12
2023-02-27T10:20:58.765Z,101190.41
2023-02-27T10:22:08.564Z,101193.91
2023-02-27T10:23:19.339Z,101198.41
2023-02-27T10:24:30.439Z,101196.63
2023-02-27T10:25:38.228Z,101197.56
2023-02-27T10:26:42.829Z,101198.56
2023-02-27T10:27:53.716Z,101202.69
2023-02-27T10:28:59.270Z,101205.16
2023-02-27T10:30:29.986Z,101205.09
2023-02-27T10:31:36.142Z,101199.78
2023-02-27T10:32:40.350Z,101203.03
2023-02-27T10:33:45.286Z,101198.59
2023-02-27T10:34:58.915Z,101209.03
2023-02-27T10:36:03.534Z,101208.19
2023-02-27T10:37:07.334Z,101201.22
2023-02-27T10:38:18.854Z,101208.03
2023-02-27T10:39:23.317Z,101213.22
2023-02-27T10:40:27.062Z,101210.53
2023-02-27T10:41:30.823Z,101202.75
2023-02-27T10:42:39.144Z,101212.19
2023-02-27T10:43:43.664Z,101213.19
2023-02-27T10:44:53.596Z,101214.78
2023-02-27T10:45:56.848Z,101214.78
2023-02-27T10:47:00.152Z,101216.69
2023-02-27T10:48:04.776Z,101218.41
2023-02-27T10:49:19.134Z,101220.97
2023-02-27T10:50:26.042Z,101212.44
2023-02-27T10:51:38.509Z,101214.31
2023-02-27T10:53:00.723Z,101208.12
2023-02-27T10:54:21.964Z,101214.84
2023-02-27T10:55:33.708Z,101212.81
2023-02-27T10:56:37.337Z,101216.97
2023-02-27T10:57:43.757Z,101211.66
2023-02-27T10:58:47.058Z,101218.28
2023-02-27T10:59:53.711Z,101213.84
2023-02-27T11:00:59.386Z,101212.94
2023-02-27T11:02:06.267Z,101216.63
2023-02-27T11:03:25.064Z,101195.66
2023-02-27T11:04:39.638Z,101210.72
2023-02-27T11:05:42.476Z,101207.16
2023-02-27T11:06:52.673Z,101213.09
2023-02-27T11:07:57.859Z,101206.50
2023-02-27T11:09:27.332Z,101216.06
2023-02-27T11:10:30.459Z,101210.31
2023-02-27T11:11:33.438Z,101217.75
2023-02-27T11:12:36.318Z,101224.72
2023-02-27T11:13:45.642Z,101217.88
2023-02-27T11:14:53.877Z,101217.19
2023-02-27T11:16:06.456Z,101217.75
2023-02-27T11:17:22.425Z,101218.94
2023-02-27T11:18:28.800Z,101222.97
2023-02-27T11:19:37.519Z,101225.31
2023-02-27T11:20:43.536Z,101222.25
2023-02-27T11:22:07.439Z,101217.03
2023-02-27T11:23:25.988Z,101225.97
2023-02-27T11:24:29.382Z,101229.63
2023-02-27T11:25:33.688Z,101209.09
2023-02-27T11:26:39.268Z,101227.50
2023-02-27T11:27:42.814Z,101227.78
2023-02-27T11:28:45.666Z,101224.53
2023-02-27T11:30:02.513Z,101232.53
2023-02-27T11:31:22.335Z,101234.91
2023-02-27T11:32:29.929Z,101239.97
2023-02-27T11:33:40.455Z,101237.13
2023-02-27T11:34:50.932Z,101227.47
2023-02-27T11:35:58.004Z,101228.47
2023-02-27T11:37:08.024Z,101234.94
2023-02-27T11:38:25.675Z,101237.06
2023-02-27T11:39:37.075Z,101226.34
2023-02-27T11:40:50.378Z,101230.69
2023-02-27T11:41:56.770Z,101219.72
2023-02-27T11:43:05.215Z,101224.69
2023-02-27T11:44:17.897Z,101222.75
2023-02-27T11:46:04.667Z,101212.63
2023-02-27T11:47:17.004Z,101225.91
2023-02-27T11:48:22.035Z,101216.31
2023-02-27T11:49:37.336Z,101221.53
2023-02-27T11:50:53.749Z,101223.91
2023-02-27T11:52:07.204Z,101225.53
2023-02-27T11:53:24.709Z,101218.53
2023-02-27T11:54:38.964Z,101225.00
2023-02-27T11:55:43.033Z,101219.84
2023-02-27T11:57:00.314Z,101222.44
2023-02-27T11:58:12.934Z,101219.84
2023-02-27T11:59:27.597Z,101223.31
2023-02-27T12:00:39.884Z,101228.78
2023-02-27T12:01:56.206Z,101234.47
2023-02-27T12:03:36.377Z,101227.56
2023-02-27T12:04:59.868Z,101229.19
2023-02-27T12:06:13.760Z,101233.03
2023-02-27T12:08:12.825Z,101233.84
2023-02-27T12:09:34.822Z,101228.38
2023-02-27T12:10:49.748Z,101233.31
2023-02-27T12:11:53.562Z,101227.78
2023-02-27T12:13:06.639Z,101232.94
2023-02-27T12:14:14.264Z,101239.16
2023-02-27T12:15:41.768Z,101234.97
2023-02-27T12:16:57.037Z,101235.88
2023-02-27T12:18:13.053Z,101235.09
2023-02-27T12:19:18.663Z,101235.28
2023-02-27T12:20:34.335Z,101240.75
2023-02-27T12:21:42.408Z,101240.78
2023-02-27T12:22:49.253Z,101240.66
2023-02-27T12:24:13.968Z,101233.91
2023-02-27T12:25:37.910Z,101235.81
2023-02-27T12:26:47.190Z,101242.81
2023-02-27T12:27:59.267Z,101248.06
2023-02-27T12:29:13.678Z,101242.12
2023-02-27T12:30:22.644Z,101242.28
2023-02-27T12:31:32.671Z,101240.69
2023-02-27T12:33:11.185Z,101239.63
2023-02-27T12:34:35.801Z,101248.38
2023-02-27T12:35:40.828Z,101242.16
2023-02-27T12:36:44.272Z,101241.19
2023-02-27T12:37:47.837Z,101237.84
2023-02-27T12:38:52.547Z,101238.69
2023-02-27T12:39:59.524Z,101235.09
2023-02-27T12:41:11.261Z,101240.22
2023-02-27T12:42:20.224Z,101240.28
2023-02-27T12:43:41.479Z,101241.34
2023-02-27T12:45:15.642Z,101245.81
2023-02-27T12:46:42.366Z,101243.87
2023-02-27T12:48:03.425Z,101237.09
2023-02-27T12:49:15.356Z,101241.47
2023-02-27T12:50:19.835Z,101240.59
2023-02-27T12:51:31.811Z,101245.81
2023-02-27T12:52:43.626Z,101250.22
2023-02-27T12:54:05.383Z,101248.56
2023-02-27T12:55:21.093Z,101254.41
2023-02-27T12:56:34.362Z,101252.62
2023-02-27T12:57:44.950Z,101249.97
2023-02-27T12:59:19.598Z,101249.78
2023-02-27T13:00:26.761Z,101252.00
2023-02-27T13:01:48.094Z,101258.91
2023-02-27T13:03:17.670Z,101262.25
2023-02-27T13:04:23.368Z,101266.69
2023-02-27T13:05:49.007Z,101264.09
2023-02-27T13:07:04.428Z,101261.50
2023-02-27T13:08:32.256Z,101260.66
2023-02-27T13:09:47.762Z,101267.84
2023-02-27T13:11:02.801Z,101267.84
2023-02-27T13:12:34.594Z,101267.78
2023-02-27T13:13:48.074Z,101273.00
2023-02-27T13:15:04.208Z,101267.84
2023-02-27T13:16:15.907Z,101266.16
2023-02-27T13:17:34.289Z,101256.00
2023-02-27T13:18:59.490Z,101270.47
2023-02-27T13:20:27.155Z,101261.94
2023-02-27T13:21:39.977Z,101262.72
2023-02-27T13:22:58.826Z,101278.53
2023-02-27T13:24:17.036Z,101282.75
2023-02-27T13:25:20.588Z,101279.38
2023-02-27T13:26:29.560Z,101283.69
2023-02-27T13:27:38.314Z,101287.94
2023-02-27T13:28:41.907Z,101287.09
2023-02-27T13:29:59.468Z,101293.84
2023-02-27T13:31:19.681Z,101269.72
2023-02-27T13:32:43.755Z,101292.97
2023-02-27T13:34:08.825Z,101299.03
2023-02-27T13:35:32.649Z,101292.06
2023-02-27T13:36:46.833Z,101298.22
2023-02-27T13:38:05.598Z,101293.44
2023-02-27T13:39:41.403Z,101294.13
2023-02-27T13:40:44.192Z,101305.53
2023-02-27T13:41:46.998Z,101302.88
2023-02-27T13:42:49.759Z,101308.00
2023-02-27T13:43:57.192Z,101305.47
2023-02-27T13:45:02.240Z,101302.16
2023-02-27T13:46:28.452Z,101309.06
2023-02-27T13:47:31.116Z,101310.81
2023-02-27T13:48:33.848Z,101314.97
2023-02-27T13:49:43.098Z,101308.97
2023-02-27T13:50:50.453Z,101305.53
2023-02-27T13:51:54.760Z,101309.09
2023-02-27T13:53:09.662Z,101307.38
2023-02-27T13:54:15.639Z,101316.94
2023-02-27T13:55:27.412Z,101311.78
2023-02-27T13:56:30.550Z,101318.53
2023-02-27T13:57:37.311Z,101322.75
2023-02-27T13:58:41.271Z,101326.97
2023-02-27T13:59:53.199Z,101320.00
2023-02-27T14:01:00.093Z,101324.31
2023-02-27T14:02:11.843Z,101328.78
2023-02-27T14:03:22.114Z,101331.53
2023-02-27T14:04:28.588Z,101322.81
2023-02-27T14:05:36.244Z,101315.00
2023-02-27T14:06:45.829Z,101321.13
2023-02-27T14:08:14.263Z,101331.34
2023-02-27T14:09:22.274Z,101325.34
2023-02-27T14:10:28.739Z,101338.22
2023-02-27T14:11:34.531Z,101333.28
2023-02-27T14:12:45.746Z,101319.41
2023-02-27T14:13:56.935Z,101343.53
2023-02-27T14:15:01.748Z,101347.94
2023-02-27T14:16:06.091Z,101342.66
2023-02-27T14:17:11.950Z,101309.00
2023-02-27T14:18:57.317Z,101339.94
2023-02-27T14:20:01.048Z,101349.38
2023-02-27T14:21:03.996Z,101350.38
2023-02-27T14:22:47.649Z,101346.91
2023-02-27T14:23:50.434Z,101354.94
2023-02-27T14:25:06.764Z,101357.28
2023-02-27T14:26:21.243Z,101354.59
2023-02-27T14:27:26.888Z,101357.19
2023-02-27T14:28:46.528Z,101357.94
2023-02-27T14:29:52.244Z,101352.00
2023-02-27T14:31:04.416Z,101355.63
2023-02-27T14:32:08.616Z,101366.88
2023-02-27T14:33:37.584Z,101363.41
2023-02-27T14:34:42.387Z,101367.62
2023-02-27T14:35:57.089Z,101367.53
2023-02-27T14:37:02.452Z,101374.56
2023-02-27T14:38:11.263Z,101374.56
2023-02-27T14:39:33.592Z,101379.97
2023-02-27T14:40:43.829Z,101378.09
2023-02-27T14:41:52.090Z,101381.53
2023-02-27T14:43:18.080Z,101386.72
2023-02-27T14:44:28.045Z,101389.34
2023-02-27T14:45:31.655Z,101386.72
2023-02-27T14:46:41.371Z,101383.25
2023-02-27T14:47:45.824Z,101391.81
2023-02-27T14:48:54.094Z,101386.63
2023-02-27T14:49:57.622Z,101390.09
2023-02-27T14:51:02.022Z,101382.28
2023-02-27T14:52:12.800Z,101390.78
2023-02-27T14:53:25.342Z,101394.25
2023-02-27T14:54:28.511Z,101385.59
2023-02-27T14:55:34.067Z,101395.91
2023-02-27T14:56:36.896Z,101389.87
2023-02-27T14:57:40.193Z,101397.84
2023-02-27T14:58:55.562Z,101398.75
2023-02-27T15:00:06.598Z,101403.03
2023-02-27T15:01:10.960Z,101406.53
2023-02-27T15:02:28.855Z,101404.06
2023-02-27T15:03:37.629Z,101404.09
2023-02-27T15:04:40.796Z,101408.47
2023-02-27T15:05:44.077Z,101405.84
2023-02-27T15:06:50.366Z,101410.37
2023-02-27T15:07:53.995Z,101412.13
2023-02-27T15:08:57.410Z,101419.09
2023-02-27T15:10:04.473Z,101418.19
2023-02-27T15:11:13.848Z,101419.94
2023-02-27T15:12:20.088Z,101422.59
2023-02-27T15:13:32.599Z,101428.56
2023-02-27T15:14:40.422Z,101435.53
2023-02-27T15:15:43.509Z,101434.66
2023-02-27T15:16:47.216Z,101433.06
2023-02-27T15:17:54.656Z,101434.09
2023-02-27T15:19:05.286Z,101435.84
2023-02-27T15:20:31.397Z,101435.03
2023-02-27T15:21:40.423Z,101431.47
2023-02-27T15:22:43.191Z,101376.47
2023-02-27T15:23:57.374Z,101428.94
2023-02-27T15:25:01.271Z,101417.81
2023-02-27T15:26:04.508Z,101432.50
2023-02-27T15:27:11.408Z,101429.06
2023-02-27T15:28:23.509Z,101444.63
2023-02-27T15:29:42.530Z,101451.50
2023-02-27T15:30:50.533Z,101456.69
2023-02-27T15:31:54.091Z,101455.84
2023-02-27T15:32:57.774Z,101459.34
2023-02-27T15:34:02.320Z,101455.84
2023-02-27T15:35:30.145Z,101464.47
2023-02-27T15:36:35.876Z,101468.81
2023-02-27T15:37:39.524Z,101470.50
2023-02-27T15:38:42.754Z,101466.25
2023-02-27T15:42:14.457Z,101471.44
2023-02-27T15:43:18.961Z,101461.91
2023-02-27T15:44:27.781Z,101474.00
2023-02-27T15:45:36.217Z,101474.88
2023-02-27T15:46:39.382Z,101483.53
2023-02-27T15:47:44.799Z,101483.53
2023-02-27T15:48:53.972Z,101474.97
2023-02-27T15:50:09.001Z,101484.44
2023-02-27T15:51:12.223Z,101486.19
2023-02-27T15:52:26.564Z,101485.34
2023-02-27T15:53:34.141Z,101484.47
2023-02-27T15:54:43.114Z,101471.56
2023-02-27T15:56:01.016Z,101481.06
2023-02-27T15:57:05.681Z,101488.78
2023-02-27T15:58:30.707Z,101489.66
2023-02-27T15:59:37.596Z,101488.81
2023-02-27T16:00:42.376Z,101490.56
2023-02-27T16:01:58.208Z,101494.00
2023-02-27T16:03:02.316Z,101493.16
2023-02-27T16:04:20.663Z,101496.62
2023-02-27T16:05:36.190Z,101499.22
2023-02-27T16:06:41.360Z,101478.53
2023-02-27T16:07:45.583Z,101502.62
2023-02-27T16:09:01.792Z,101502.66
2023-02-27T16:10:17.487Z,101499.19
2023-02-27T16:11:28.150Z,101498.34
2023-02-27T16:12:38.232Z,101504.37
2023-02-27T16:13:41.983Z,101507.84
2023-02-27T16:14:45.512Z,101509.56
2023-02-27T16:16:00.480Z,101514.72
2023-02-27T16:17:04.264Z,101513.03
2023-02-27T16:18:08.239Z,101516.47
2023-02-27T16:19:46.092Z,101518.19
2023-02-27T16:20:55.039Z,101514.75
2023-02-27T16:22:07.064Z,101520.78
2023-02-27T16:23:09.923Z,101519.06
2023-02-27T16:24:29.955Z,101519.91
2023-02-27T16:25:34.832Z,101529.38
2023-02-27T16:26:37.951Z,101523.38
2023-02-27T16:27:50.167Z,101531.13
2023-02-27T16:29:14.138Z,101531.13
2023-02-27T16:30:20.169Z,101535.44
2023-02-27T16:31:47.038Z,101527.66
2023-02-27T16:33:00.112Z,101534.56
2023-02-27T16:34:14.054Z,101526.81
2023-02-27T16:35:24.233Z,101531.97
2023-02-27T16:36:30.792Z,101533.69
2023-02-27T16:37:40.482Z,101536.28
2023-02-27T16:38:44.210Z,101542.31
2023-02-27T16:39:50.138Z,101532.84
2023-02-27T16:40:56.596Z,101538.84
2023-02-27T16:42:02.613Z,101539.75
2023-02-27T16:43:07.320Z,101536.28
2023-02-27T16:44:11.426Z,101539.72
2023-02-27T16:45:17.389Z,101538.84
2023-02-27T16:46:22.040Z,101546.59
2023-02-27T16:47:28.957Z,101545.75
2023-02-27T16:48:32.325Z,101545.75
2023-02-27T16:49:35.956Z,101545.75
2023-02-27T16:50:43.104Z,101546.63
2023-02-27T16:51:47.505Z,101545.75
2023-02-27T16:52:51.117Z,101546.59
2023-02-27T16:53:56.707Z,101555.22
2023-02-27T16:54:59.782Z,101552.63
2023-02-27T16:56:03.124Z,101555.22
2023-02-27T16:57:06.644Z,101545.75
2023-02-27T16:58:17.057Z,101557.81
2023-02-27T16:59:26.974Z,101557.81
2023-02-27T17:00:36.478Z,101555.19
2023-02-27T17:01:39.683Z,101555.19
2023-02-27T17:02:45.086Z,101556.06
2023-02-27T17:03:49.078Z,101556.09
2023-02-27T17:04:52.446Z,101539.69
2023-02-27T17:05:58.518Z,101558.66
2023-02-27T17:07:07.789Z,101562.09
2023-02-27T17:08:13.003Z,101557.78
2023-02-27T17:09:16.673Z,101562.94
2023-02-27T17:10:22.469Z,101559.50
2023-02-27T17:11:25.227Z,101561.25
2023-02-27T17:12:28.847Z,101560.34
2023-02-27T17:13:36.603Z,101566.38
2023-02-27T17:14:39.866Z,101568.09
2023-02-27T17:15:43.134Z,101565.53
2023-02-27T17:16:47.926Z,101567.25
2023-02-27T17:17:52.573Z,101563.78
2023-02-27T17:18:58.280Z,101560.31
2023-02-27T17:20:02.052Z,101559.47
2023-02-27T17:21:05.701Z,101563.75
2023-02-27T17:22:09.198Z,101556.91
2023-02-27T17:23:14.414Z,101566.34
2023-02-27T17:24:18.238Z,101567.22
2023-02-27T17:25:23.428Z,101547.38
2023-02-27T17:26:27.448Z,101562.91
2023-02-27T17:27:30.880Z,101573.25
2023-02-27T17:28:34.317Z,101571.50
2023-02-27T17:29:39.332Z,101567.22
2023-02-27T17:30:43.001Z,101564.63
2023-02-27T17:31:46.752Z,101564.63
2023-02-27T17:32:51.489Z,101568.06
2023-02-27T17:33:55.684Z,101568.91
2023-02-27T17:34:59.456Z,101575.81
2023-02-27T17:36:10.888Z,101574.94
2023-02-27T17:37:15.627Z,101565.47
2023-02-27T17:38:19.557Z,101581.81
2023-02-27T17:39:23.578Z,101578.38
2023-02-27T17:40:27.810Z,101583.53
2023-02-27T17:41:32.969Z,101580.09
2023-02-27T17:42:37.788Z,101586.13
2023-02-27T17:43:43.683Z,101587.00
2023-02-27T17:44:48.969Z,101585.28
2023-02-27T17:45:53.141Z,101587.00
2023-02-27T17:46:57.457Z,101589.56
2023-02-27T17:48:01.834Z,101590.44
2023-02-27T17:49:06.302Z,101590.44
2023-02-27T17:50:11.025Z,101593.88
2023-02-27T17:51:18.929Z,101601.62
2023-02-27T17:52:22.831Z,101599.03
2023-02-27T17:53:27.075Z,101585.22
2023-02-27T17:54:31.791Z,101595.56
2023-02-27T17:55:37.070Z,101592.13
2023-02-27T17:56:43.861Z,101592.97
2023-02-27T17:57:48.002Z,101589.53
2023-02-27T17:58:53.070Z,101601.59
2023-02-27T17:59:58.922Z,101580.88
2023-02-27T18:01:12.523Z,101597.25
2023-02-27T18:02:17.913Z,101600.72
2023-02-27T18:03:26.607Z,101602.41
2023-02-27T18:04:31.760Z,101605.00
2023-02-27T18:05:36.007Z,101609.34
2023-02-27T18:06:40.480Z,101609.34
2023-02-27T18:07:44.631Z,101610.19
2023-02-27T18:08:48.879Z,101608.44
2023-02-27T18:09:53.820Z,101608.44
2023-02-27T18:10:59.102Z,101606.75
2023-02-27T18:12:04.354Z,101611.03
2023-02-27T18:13:08.859Z,101611.88
2023-02-27T18:14:15.112Z,101609.31
2023-02-27T18:15:21.622Z,101614.47
2023-02-27T18:16:28.071Z,101611.88
2023-02-27T18:17:33.250Z,101611.00
2023-02-27T18:18:39.683Z,101619.59
2023-02-27T18:19:44.112Z,101621.31
2023-02-27T18:20:48.509Z,101624.72
2023-02-27T18:21:52.350Z,101625.59
2023-02-27T18:22:56.610Z,101622.12
2023-02-27T18:24:00.956Z,101624.72
2023-02-27T18:25:05.875Z,101632.47
2023-02-27T18:26:27.078Z,101625.56
2023-02-27T18:27:39.318Z,101628.12
2023-02-27T18:28:43.683Z,101623.84
2023-02-27T18:29:49.741Z,101625.56
2023-02-27T18:30:55.300Z,101623.84
2023-02-27T18:32:00.952Z,101624.69
2023-02-27T18:33:07.951Z,101632.41
2023-02-27T18:34:15.328Z,101632.41
2023-02-27T18:35:23.593Z,101632.41
2023-02-27T18:36:28.252Z,101630.66
2023-02-27T18:37:32.987Z,101636.69
2023-02-27T18:38:38.256Z,101632.38
2023-02-27T18:39:45.158Z,101628.94
2023-02-27T18:40:52.991Z,101622.88
2023-02-27T18:41:56.555Z,101636.66
2023-02-27T18:43:04.956Z,101639.22
2023-02-27T18:44:15.582Z,101631.47
2023-02-27T18:45:23.347Z,101630.59
2023-02-27T18:46:35.919Z,101637.44
2023-02-27T18:47:46.054Z,101635.75
2023-02-27T18:48:51.437Z,101641.78
2023-02-27T18:50:03.530Z,101635.75
2023-02-27T18:51:27.786Z,101633.13
2023-02-27T18:52:42.703Z,101646.91
2023-02-27T18:53:50.528Z,101649.50
2023-02-27T18:54:54.478Z,101642.59
2023-02-27T18:56:03.235Z,101646.87
2023-02-27T18:57:07.427Z,101655.50
2023-02-27T18:58:15.199Z,101653.78
2023-02-27T18:59:19.443Z,101644.34
2023-02-27T19:00:24.734Z,101658.94
2023-02-27T19:01:32.323Z,101653.78
2023-02-27T19:02:41.896Z,101664.97
2023-02-27T19:03:46.673Z,101647.69
2023-02-27T19:04:52.213Z,101666.66
2023-02-27T19:05:56.505Z,101658.03
2023-02-27T19:07:01.079Z,101663.22
2023-02-27T19:08:05.304Z,101653.75
2023-02-27T19:09:12.969Z,101666.63
2023-02-27T19:10:17.306Z,101658.91
2023-02-27T19:11:24.215Z,101662.31
2023-02-27T19:12:27.928Z,101657.16
2023-02-27T19:13:33.293Z,101664.91
2023-02-27T19:14:38.608Z,101668.38
2023-02-27T19:15:42.753Z,101654.59
2023-02-27T19:16:46.986Z,101660.59
2023-02-27T19:17:53.053Z,101658.91
2023-02-27T19:18:58.861Z,101670.09
2023-02-27T19:20:04.382Z,101668.38
2023-02-27T19:21:09.826Z,101666.63
2023-02-27T19:22:13.624Z,101664.88
2023-02-27T19:23:17.780Z,101667.47
2023-02-27T19:24:23.695Z,101612.22
2023-02-27T19:25:27.814Z,101668.38
2023-02-27T19:26:34.720Z,101659.75
2023-02-27T19:27:39.715Z,101662.31
2023-02-27T19:28:44.044Z,101669.19
2023-02-27T19:29:48.624Z,101669.19
2023-02-27T19:30:53.208Z,101667.44
2023-02-27T19:31:56.687Z,101670.91
2023-02-27T19:33:01.391Z,101679.50
2023-02-27T19:34:06.154Z,101683.78
2023-02-27T19:35:14.916Z,101678.63
2023-02-27T19:36:22.906Z,101670.00
2023-02-27T19:37:28.298Z,101676.03
2023-02-27T19:38:33.683Z,101676.91
2023-02-27T19:39:38.100Z,101676.88
2023-02-27T19:40:41.930Z,101676.03
2023-02-27T19:41:46.531Z,101673.44
2023-02-27T19:42:50.898Z,101680.31
2023-02-27T19:43:55.793Z,101676.88
2023-02-27T19:45:01.436Z,101685.47
2023-02-27T19:46:11.339Z,101680.31
2023-02-27T19:47:15.260Z,101679.44
2023-02-27T19:48:20.458Z,101683.75
2023-02-27T19:49:24.977Z,101681.13
2023-02-27T19:50:30.997Z,101675.97
2023-02-27T19:51:36.869Z,101640.56
2023-02-27T19:52:41.901Z,101674.25
2023-02-27T19:53:49.199Z,101676.81
2023-02-27T19:54:55.018Z,101662.22
2023-02-27T19:56:04.264Z,101669.09
2023-02-27T19:57:09.249Z,101676.81
2023-02-27T19:58:14.888Z,101673.38
2023-02-27T19:59:25.897Z,101686.28
2023-02-27T20:00:32.989Z,101676.78
2023-02-27T20:01:39.540Z,101672.50
2023-02-27T20:02:43.940Z,101680.22
2023-02-27T20:03:48.173Z,101681.09
2023-02-27T20:04:52.035Z,101684.56
2023-02-27T20:05:56.679Z,101677.69
2023-02-27T20:07:02.723Z,101682.84
2023-02-27T20:08:07.204Z,101672.47
2023-02-27T20:09:16.122Z,101685.41
2023-02-27T20:10:25.063Z,101680.22
2023-02-27T20:11:33.342Z,101681.97
2023-02-27T20:12:37.932Z,101685.38
2023-02-27T20:13:41.497Z,101684.53
2023-02-27T20:14:44.846Z,101682.81
2023-02-27T20:16:08.799Z,101681.06
2023-02-27T20:17:17.111Z,101688.81
2023-02-27T20:18:23.409Z,101681.94
2023-02-27T20:19:29.041Z,101687.97
2023-02-27T20:20:34.599Z,101681.06
2023-02-27T20:21:39.879Z,101676.78
2023-02-27T20:22:46.522Z,101680.22
2023-02-27T20:23:54.607Z,101683.63
2023-02-27T20:25:00.530Z,101681.94
2023-02-27T20:26:33.422Z,101681.91